createdAt,value
2019-02-16T00:01:57.544Z,148.43
2019-02-16T00:04:25.082Z,173.33
2019-02-16T00:06:52.633Z,196.37
2019-02-16T00:09:20.133Z,198.30
2019-02-16T00:11:47.731Z,166.50
2019-02-16T00:14:15.347Z,143.17
2019-02-16T00:16:42.847Z,163.80
2019-02-16T00:19:10.350Z,181.57
2019-02-16T00:21:37.892Z,175.47
2019-02-16T00:24:05.379Z,194.47
2019-02-16T00:26:32.890Z,232.80
2019-02-16T00:29:00.459Z,203.90
2019-02-16T00:31:27.950Z,151.20
2019-02-16T00:33:55.473Z,130.97
2019-02-16T00:36:23.031Z,108.03
2019-02-16T00:38:50.551Z,100.97
2019-02-16T00:41:18.061Z,87.23
2019-02-16T00:43:45.612Z,98.90
2019-02-16T00:46:13.104Z,86.43
2019-02-16T00:48:40.640Z,81.50
2019-02-16T00:51:13.469Z,88.67
2019-02-16T00:53:37.498Z,90.53
2019-02-16T00:56:05.053Z,89.80
2019-02-16T00:58:32.618Z,77.97
2019-02-16T01:01:00.156Z,81.83
2019-02-16T01:03:27.667Z,69.33
2019-02-16T01:05:55.235Z,90.97
2019-02-16T01:08:22.846Z,82.00
2019-02-16T01:10:50.353Z,78.40
2019-02-16T01:13:17.951Z,87.07
2019-02-16T01:15:45.456Z,73.73
2019-02-16T01:18:12.970Z,88.97
2019-02-16T01:20:40.532Z,79.00
2019-02-16T01:23:08.056Z,94.53
2019-02-16T01:25:35.559Z,91.63
2019-02-16T01:28:03.090Z,88.37
2019-02-16T01:30:30.591Z,92.97
2019-02-16T01:32:58.121Z,88.20
2019-02-16T01:35:25.644Z,72.77
2019-02-16T01:37:53.204Z,82.80
2019-02-16T01:40:20.671Z,84.80
2019-02-16T01:42:48.182Z,82.43
2019-02-16T01:45:15.699Z,83.27
2019-02-16T01:47:43.206Z,84.67
2019-02-16T01:50:10.712Z,72.93
2019-02-16T01:52:38.218Z,58.80
2019-02-16T01:55:08.013Z,77.17
2019-02-16T01:57:35.548Z,80.77
2019-02-16T02:00:03.278Z,74.33
2019-02-16T02:02:30.782Z,74.53
2019-02-16T02:04:58.330Z,72.77
2019-02-16T02:07:25.840Z,84.17
2019-02-16T02:09:53.385Z,80.57
2019-02-16T02:12:20.934Z,118.90
2019-02-16T02:14:48.461Z,84.77
2019-02-16T02:17:15.982Z,81.00
2019-02-16T02:19:43.516Z,82.47
2019-02-16T02:22:11.017Z,92.50
2019-02-16T02:24:38.546Z,91.03
2019-02-16T02:27:06.055Z,91.27
2019-02-16T02:29:33.548Z,81.50
2019-02-16T02:32:01.083Z,85.70
2019-02-16T02:34:28.615Z,85.33
2019-02-16T02:36:56.130Z,102.67
2019-02-16T02:39:23.642Z,124.83
2019-02-16T02:41:51.149Z,99.80
2019-02-16T02:44:18.671Z,106.57
2019-02-16T02:46:46.187Z,134.20
2019-02-16T02:49:13.681Z,109.53
2019-02-16T02:51:51.531Z,154.67
2019-02-16T02:54:10.511Z,213.53
2019-02-16T02:56:38.005Z,257.70
2019-02-16T02:59:05.555Z,296.03
2019-02-16T03:01:33.056Z,283.63
2019-02-16T03:04:00.536Z,262.10
2019-02-16T03:06:28.093Z,332.47
2019-02-16T03:08:55.613Z,311.27
2019-02-16T03:11:23.129Z,319.87
2019-02-16T03:13:50.630Z,302.77
2019-02-16T03:16:18.101Z,258.17
2019-02-16T03:18:45.641Z,205.80
2019-02-16T03:21:13.195Z,172.57
2019-02-16T03:23:40.776Z,169.80
2019-02-16T03:26:48.211Z,186.20
2019-02-16T03:29:58.331Z,193.97
2019-02-16T03:33:08.457Z,184.13
2019-02-16T03:36:26.594Z,198.97
2019-02-16T03:39:05.064Z,189.90
2019-02-16T03:41:32.827Z,139.60
2019-02-16T03:44:00.327Z,146.63
2019-02-16T03:46:27.853Z,117.97
2019-02-16T03:48:55.329Z,138.23
2019-02-16T03:51:22.834Z,125.67
2019-02-16T03:53:50.358Z,132.77
2019-02-16T03:56:17.878Z,112.00
2019-02-16T03:58:45.386Z,113.57
2019-02-16T04:01:12.894Z,109.80
2019-02-16T04:03:40.449Z,105.97
2019-02-16T04:06:07.945Z,99.13
2019-02-16T04:08:35.443Z,87.80
2019-02-16T04:11:02.989Z,95.03
2019-02-16T04:13:30.885Z,97.57
2019-02-16T04:15:58.396Z,113.40
2019-02-16T04:18:25.946Z,114.63
2019-02-16T04:20:53.457Z,109.63
2019-02-16T04:23:20.981Z,110.47
2019-02-16T04:25:48.555Z,111.43
2019-02-16T04:28:16.076Z,116.27
2019-02-16T04:30:43.568Z,118.93
2019-02-16T04:33:11.079Z,105.77
2019-02-16T04:35:38.645Z,109.43
2019-02-16T04:38:06.269Z,92.60
2019-02-16T04:40:33.811Z,99.90
2019-02-16T04:43:01.334Z,98.13
2019-02-16T04:45:28.825Z,101.60
2019-02-16T04:47:56.362Z,100.00
2019-02-16T04:50:23.876Z,80.23
2019-02-16T04:52:51.371Z,100.40
2019-02-16T04:55:18.861Z,108.73
2019-02-16T04:57:46.414Z,89.87
2019-02-16T05:00:13.895Z,106.33
2019-02-16T05:02:41.401Z,89.40
2019-02-16T05:05:08.939Z,91.00
2019-02-16T05:07:36.423Z,109.53
2019-02-16T05:10:04.414Z,96.83
2019-02-16T05:12:31.937Z,99.37
2019-02-16T05:14:59.535Z,95.93
2019-02-16T05:17:27.040Z,104.53
2019-02-16T05:19:54.567Z,102.60
2019-02-16T05:22:22.101Z,110.17
2019-02-16T05:24:49.594Z,93.63
2019-02-16T05:27:17.127Z,121.47
2019-02-16T05:29:44.611Z,101.80
2019-02-16T05:32:12.167Z,109.80
2019-02-16T05:34:39.646Z,116.43
2019-02-16T05:37:07.134Z,115.03
2019-02-16T05:39:34.653Z,111.33
2019-02-16T05:42:02.155Z,119.23
2019-02-16T05:44:29.694Z,112.93
2019-02-16T05:46:57.369Z,123.13
2019-02-16T05:49:24.877Z,112.40
2019-02-16T05:51:52.417Z,79.23
2019-02-16T05:54:19.886Z,132.53
2019-02-16T05:56:47.394Z,116.93
2019-02-16T05:59:14.927Z,116.43
2019-02-16T06:01:42.432Z,115.33
2019-02-16T06:04:09.925Z,90.50
2019-02-16T06:06:37.475Z,111.20
2019-02-16T06:09:05.201Z,116.03
2019-02-16T06:11:32.713Z,146.53
2019-02-16T06:14:00.225Z,121.23
2019-02-16T06:16:27.761Z,115.20
2019-02-16T06:18:55.278Z,143.77
2019-02-16T06:21:22.771Z,179.73
2019-02-16T06:23:50.297Z,173.80
2019-02-16T06:26:17.802Z,199.23
2019-02-16T06:28:45.329Z,316.83
2019-02-16T06:31:12.841Z,429.97
2019-02-16T06:33:40.354Z,320.60
2019-02-16T06:36:17.121Z,284.73
2019-02-16T06:38:44.642Z,120.50
2019-02-16T06:41:12.149Z,93.83
2019-02-16T06:43:39.658Z,64.87
2019-02-16T06:46:07.529Z,61.77
2019-02-16T06:48:35.068Z,60.17
2019-02-16T06:51:02.561Z,66.37
2019-02-16T06:53:30.081Z,66.53
2019-02-16T06:56:05.016Z,65.87
2019-02-16T06:58:32.613Z,54.57
2019-02-16T07:01:00.130Z,59.50
2019-02-16T07:03:27.661Z,58.07
2019-02-16T07:05:55.189Z,47.13
2019-02-16T07:08:22.669Z,47.23
2019-02-16T07:10:50.233Z,53.50
2019-02-16T07:13:17.752Z,48.97
2019-02-16T07:15:50.499Z,48.43
2019-02-16T07:18:33.954Z,51.63
2019-02-16T07:21:01.517Z,45.30
2019-02-16T07:23:29.013Z,74.53
2019-02-16T07:25:56.609Z,64.47
2019-02-16T07:28:24.157Z,49.87
2019-02-16T07:30:51.667Z,50.63
2019-02-16T07:33:19.177Z,59.40
2019-02-16T07:35:46.725Z,59.07
2019-02-16T07:38:14.213Z,45.87
2019-02-16T07:40:41.737Z,53.57
2019-02-16T07:43:18.806Z,52.53
2019-02-16T07:46:01.791Z,53.23
2019-02-16T07:48:39.659Z,58.70
2019-02-16T07:51:35.708Z,57.43
2019-02-16T07:54:21.413Z,53.53
2019-02-16T07:56:56.337Z,53.13
2019-02-16T07:59:31.944Z,53.37
2019-02-16T08:02:17.615Z,55.50
2019-02-16T08:05:10.211Z,64.17
2019-02-16T08:08:12.321Z,62.67
2019-02-16T08:10:59.362Z,74.47
2019-02-16T08:13:30.961Z,106.93
2019-02-16T08:16:18.038Z,91.93
2019-02-16T08:19:00.885Z,71.63
2019-02-16T08:21:51.657Z,85.93
2019-02-16T08:24:38.690Z,67.47
2019-02-16T08:27:23.273Z,64.67
2019-02-16T08:30:28.376Z,70.47
2019-02-16T08:33:14.351Z,69.30
2019-02-16T08:36:00.380Z,62.53
2019-02-16T08:38:37.377Z,63.73
2019-02-16T08:41:42.440Z,67.07
2019-02-16T08:44:24.165Z,67.37
2019-02-16T08:47:17.125Z,85.17
2019-02-16T08:50:10.161Z,93.67
2019-02-16T08:52:44.657Z,92.60
2019-02-16T08:55:34.685Z,87.80
2019-02-16T08:58:11.869Z,86.83
2019-02-16T09:00:57.250Z,111.43
2019-02-16T09:03:42.721Z,75.03
2019-02-16T09:06:29.744Z,69.20
2019-02-16T09:09:19.559Z,59.90
2019-02-16T09:12:03.171Z,55.27
2019-02-16T09:15:02.457Z,57.47
2019-02-16T09:17:55.268Z,59.53
2019-02-16T09:20:29.743Z,49.57
2019-02-16T09:23:19.473Z,45.33
2019-02-16T09:26:04.869Z,43.53
2019-02-16T09:28:55.086Z,45.27
2019-02-16T09:31:44.956Z,47.37
2019-02-16T09:34:21.991Z,46.50
2019-02-16T09:36:58.609Z,47.03
2019-02-16T09:39:51.571Z,40.80
2019-02-16T09:42:41.449Z,50.60
2019-02-16T09:45:17.490Z,53.13
2019-02-16T09:48:07.493Z,55.00
2019-02-16T09:50:58.057Z,56.07
2019-02-16T09:53:45.147Z,48.83
2019-02-16T09:56:34.756Z,56.70
2019-02-16T09:59:20.674Z,51.40
2019-02-16T10:02:01.866Z,59.87
2019-02-16T10:04:46.981Z,61.77
2019-02-16T10:07:34.007Z,54.47
2019-02-16T10:10:12.215Z,60.80
2019-02-16T10:13:04.058Z,65.03
2019-02-16T10:15:51.183Z,68.90
2019-02-16T10:18:41.466Z,70.87
2019-02-16T10:21:28.534Z,66.13
2019-02-16T10:24:06.946Z,72.33
2019-02-16T10:26:56.802Z,73.30
2019-02-16T10:29:53.099Z,67.13
2019-02-16T10:32:55.137Z,71.33
2019-02-16T10:35:51.071Z,87.57
2019-02-16T10:38:41.259Z,89.17
2019-02-16T10:41:26.897Z,57.20
2019-02-16T10:44:13.935Z,69.13
2019-02-16T10:47:03.705Z,72.97
2019-02-16T10:50:03.127Z,69.00
2019-02-16T10:53:02.386Z,64.30
2019-02-16T10:55:49.425Z,66.53
2019-02-16T10:58:34.927Z,69.00
2019-02-16T11:01:20.578Z,62.90
2019-02-16T11:04:07.336Z,67.63
2019-02-16T11:06:42.282Z,96.27
2019-02-16T11:09:19.513Z,74.07
2019-02-16T11:12:12.696Z,71.33
2019-02-16T11:15:05.709Z,67.60
2019-02-16T11:18:07.852Z,64.40
2019-02-16T11:20:53.819Z,67.90
2019-02-16T11:23:50.181Z,69.40
2019-02-16T11:26:35.324Z,72.40
2019-02-16T11:29:22.327Z,76.50
2019-02-16T11:32:09.378Z,65.20
2019-02-16T11:34:59.687Z,64.20
2019-02-16T11:37:45.751Z,65.13
2019-02-16T11:40:31.439Z,67.07
2019-02-16T11:43:05.118Z,65.07
2019-02-16T11:45:40.182Z,67.10
2019-02-16T11:48:27.212Z,59.60
2019-02-16T11:51:10.906Z,58.33
2019-02-16T11:53:47.717Z,45.60
2019-02-16T11:56:37.764Z,50.20
2019-02-16T11:59:36.789Z,50.97
2019-02-16T12:02:18.760Z,57.73
2019-02-16T12:05:18.263Z,50.43
2019-02-16T12:08:00.165Z,56.30
2019-02-16T12:10:41.351Z,55.80
2019-02-16T12:13:43.833Z,56.77
2019-02-16T12:16:22.377Z,44.80
2019-02-16T12:19:08.079Z,49.80
2019-02-16T12:22:12.237Z,57.43
2019-02-16T12:25:06.498Z,48.87
2019-02-16T12:27:41.763Z,45.07
2019-02-16T12:30:31.837Z,51.37
2019-02-16T12:33:11.410Z,56.83
2019-02-16T12:35:53.145Z,59.07
2019-02-16T12:38:38.487Z,51.23
2019-02-16T12:41:28.572Z,52.33
2019-02-16T12:44:27.414Z,59.17
2019-02-16T12:47:18.659Z,61.87
2019-02-16T12:50:01.625Z,62.90
2019-02-16T12:52:40.547Z,56.60
2019-02-16T12:55:26.408Z,63.97
2019-02-16T12:57:59.037Z,65.83
2019-02-16T13:00:43.312Z,51.10
2019-02-16T13:03:34.789Z,58.53
2019-02-16T13:06:18.077Z,60.50
2019-02-16T13:09:05.178Z,72.37
2019-02-16T13:11:59.680Z,62.93
2019-02-16T13:14:41.720Z,53.57
2019-02-16T13:17:33.821Z,64.13
2019-02-16T13:20:07.282Z,52.33
2019-02-16T13:22:52.693Z,70.67
2019-02-16T13:25:40.766Z,58.43
2019-02-16T13:28:22.949Z,51.10
2019-02-16T13:31:13.464Z,57.80
2019-02-16T13:33:59.362Z,57.83
2019-02-16T13:36:44.449Z,54.13
2019-02-16T13:39:30.072Z,53.70
2019-02-16T13:42:12.951Z,49.03
2019-02-16T13:45:00.300Z,48.17
2019-02-16T13:47:47.447Z,53.93
2019-02-16T13:50:46.611Z,53.13
2019-02-16T13:53:39.785Z,41.53
2019-02-16T13:56:23.483Z,41.10
2019-02-16T13:59:16.844Z,46.27
2019-02-16T14:02:09.984Z,39.97
2019-02-16T14:05:03.162Z,37.83
2019-02-16T14:07:53.015Z,35.80
2019-02-16T14:10:26.211Z,34.70
2019-02-16T14:13:08.128Z,40.77
2019-02-16T14:15:40.771Z,42.77
2019-02-16T14:18:08.413Z,45.53
2019-02-16T14:20:36.082Z,35.33
2019-02-16T14:23:03.709Z,38.10
2019-02-16T14:25:45.858Z,42.53
2019-02-16T14:28:13.688Z,46.00
2019-02-16T14:30:41.374Z,39.27
2019-02-16T14:33:09.017Z,36.67
2019-02-16T14:35:36.627Z,38.17
2019-02-16T14:38:15.077Z,36.33
2019-02-16T14:40:42.682Z,36.33
2019-02-16T14:43:10.255Z,43.83
2019-02-16T14:45:39.475Z,35.63
2019-02-16T14:48:07.133Z,39.90
2019-02-16T14:50:34.790Z,40.43
2019-02-16T14:53:02.433Z,35.77
2019-02-16T14:55:30.030Z,39.13
2019-02-16T14:57:57.652Z,41.33
2019-02-16T15:00:25.239Z,35.67
2019-02-16T15:02:52.828Z,42.27
2019-02-16T15:05:20.502Z,52.67
2019-02-16T15:07:48.034Z,53.37
2019-02-16T15:10:15.732Z,58.47
2019-02-16T15:12:43.379Z,75.53
2019-02-16T15:15:11.144Z,61.93
2019-02-16T15:17:38.698Z,66.10
2019-02-16T15:20:07.921Z,69.10
2019-02-16T15:22:35.474Z,77.10
2019-02-16T15:25:03.204Z,81.20
2019-02-16T15:27:30.953Z,73.80
2019-02-16T15:29:58.535Z,74.47
2019-02-16T15:32:26.115Z,75.53
2019-02-16T15:34:53.686Z,71.83
2019-02-16T15:37:21.274Z,77.40
2019-02-16T15:39:48.865Z,79.53
2019-02-16T15:42:16.502Z,77.33
2019-02-16T15:44:44.054Z,76.17
2019-02-16T15:47:11.588Z,80.20
2019-02-16T15:49:41.095Z,84.13
2019-02-16T15:52:08.651Z,87.30
2019-02-16T15:54:36.307Z,102.63
2019-02-16T15:57:03.871Z,143.83
2019-02-16T15:59:35.169Z,153.27
2019-02-16T16:02:01.270Z,139.93
2019-02-16T16:04:28.889Z,122.57
2019-02-16T16:06:56.419Z,140.97
2019-02-16T16:09:39.045Z,144.47
2019-02-16T16:12:28.150Z,152.87
2019-02-16T16:15:13.815Z,147.63
2019-02-16T16:18:03.629Z,136.33
2019-02-16T16:20:56.324Z,146.33
2019-02-16T16:23:42.039Z,144.27
2019-02-16T16:26:27.878Z,151.87
2019-02-16T16:29:03.382Z,146.17
2019-02-16T16:31:49.364Z,157.77
2019-02-16T16:34:32.748Z,160.77
2019-02-16T16:37:16.350Z,179.90
2019-02-16T16:40:09.705Z,175.60
2019-02-16T16:43:04.238Z,175.80
2019-02-16T16:45:49.936Z,148.90
2019-02-16T16:48:43.201Z,147.83
2019-02-16T16:51:30.306Z,150.30
2019-02-16T16:54:12.276Z,146.17
2019-02-16T16:56:54.266Z,141.17
2019-02-16T16:59:40.084Z,131.13
2019-02-16T17:02:34.082Z,143.57
2019-02-16T17:05:36.582Z,143.80
2019-02-16T17:08:15.218Z,152.90
2019-02-16T17:10:51.490Z,167.73
2019-02-16T17:13:30.501Z,164.27
2019-02-16T17:16:16.411Z,159.60
2019-02-16T17:19:18.969Z,166.37
2019-02-16T17:21:54.889Z,165.80
2019-02-16T17:24:46.360Z,162.73
2019-02-16T17:27:23.825Z,170.00
2019-02-16T17:30:09.582Z,163.03
2019-02-16T17:32:56.696Z,148.00
2019-02-16T17:35:49.496Z,131.77
2019-02-16T17:38:35.300Z,137.90
2019-02-16T17:41:20.834Z,142.17
2019-02-16T17:44:26.439Z,130.73
2019-02-16T17:47:16.041Z,133.67
2019-02-16T17:50:06.049Z,135.30
2019-02-16T17:52:51.530Z,148.60
2019-02-16T17:55:38.624Z,141.97
2019-02-16T17:58:28.744Z,134.70
2019-02-16T18:01:02.572Z,138.90
2019-02-16T18:03:57.250Z,146.30
2019-02-16T18:06:42.452Z,145.60
2019-02-16T18:09:25.160Z,147.73
2019-02-16T18:12:10.909Z,132.03
2019-02-16T18:14:47.148Z,148.73
2019-02-16T18:17:34.292Z,144.90
2019-02-16T18:20:24.466Z,150.23
2019-02-16T18:23:14.440Z,150.27
2019-02-16T18:25:52.808Z,152.57
2019-02-16T18:28:32.317Z,152.27
2019-02-16T18:31:25.355Z,146.97
2019-02-16T18:34:07.602Z,156.17
2019-02-16T18:37:06.683Z,142.43
2019-02-16T18:40:01.871Z,139.07
2019-02-16T18:42:47.629Z,145.40
2019-02-16T18:45:29.716Z,135.23
2019-02-16T18:48:28.578Z,135.07
2019-02-16T18:51:18.468Z,146.57
2019-02-16T18:54:08.834Z,135.87
2019-02-16T18:56:43.901Z,152.33
2019-02-16T18:59:19.277Z,150.17
2019-02-16T19:02:00.050Z,141.10
2019-02-16T19:04:49.410Z,147.97
2019-02-16T19:07:39.312Z,152.77
2019-02-16T19:10:29.810Z,137.03
2019-02-16T19:13:09.757Z,155.97
2019-02-16T19:15:46.716Z,139.33
2019-02-16T19:18:32.382Z,138.70
2019-02-16T19:21:18.157Z,146.27
2019-02-16T19:23:50.709Z,152.63
2019-02-16T19:26:49.782Z,151.53
2019-02-16T19:29:42.785Z,157.70
2019-02-16T19:32:42.204Z,146.30
2019-02-16T19:35:29.425Z,132.40
2019-02-16T19:38:25.342Z,140.20
2019-02-16T19:40:59.760Z,139.67
2019-02-16T19:43:39.360Z,147.63
2019-02-16T19:46:26.462Z,146.07
2019-02-16T19:49:05.045Z,163.93
2019-02-16T19:51:50.429Z,149.30
2019-02-16T19:54:36.172Z,164.97
2019-02-16T19:57:27.228Z,151.53
2019-02-16T20:00:27.644Z,159.33
2019-02-16T20:03:17.602Z,156.33
2019-02-16T20:06:01.954Z,159.60
2019-02-16T20:08:48.774Z,150.20
2019-02-16T20:11:31.818Z,162.50
2019-02-16T20:14:18.886Z,160.33
2019-02-16T20:17:15.018Z,142.97
2019-02-16T20:20:04.927Z,157.80
2019-02-16T20:22:51.957Z,140.37
2019-02-16T20:25:48.141Z,140.90
2019-02-16T20:28:45.658Z,146.53
2019-02-16T20:31:39.153Z,147.17
2019-02-16T20:34:13.730Z,157.80
2019-02-16T20:36:46.247Z,147.07
2019-02-16T20:39:44.808Z,151.40
2019-02-16T20:42:28.008Z,151.13
2019-02-16T20:45:27.191Z,137.73
2019-02-16T20:48:20.529Z,162.40
2019-02-16T20:51:10.702Z,146.13
2019-02-16T20:54:12.968Z,164.23
2019-02-16T20:56:46.196Z,174.13
2019-02-16T20:59:42.050Z,162.90
2019-02-16T21:02:27.557Z,155.83
2019-02-16T21:05:13.420Z,172.83
2019-02-16T21:08:03.635Z,157.93
2019-02-16T21:10:41.234Z,159.63
2019-02-16T21:13:24.037Z,164.60
2019-02-16T21:16:09.235Z,166.30
2019-02-16T21:18:55.260Z,155.57
2019-02-16T21:21:54.443Z,142.40
2019-02-16T21:24:43.218Z,151.83
2019-02-16T21:27:28.900Z,154.30
2019-02-16T21:30:14.233Z,141.37
2019-02-16T21:32:50.765Z,157.37
2019-02-16T21:35:53.075Z,147.20
2019-02-16T21:38:29.970Z,145.63
2019-02-16T21:41:05.900Z,151.03
2019-02-16T21:44:04.818Z,165.33
2019-02-16T21:46:39.367Z,152.67
2019-02-16T21:49:25.122Z,160.63
2019-02-16T21:52:18.965Z,155.43
2019-02-16T21:55:01.522Z,159.83
2019-02-16T21:57:48.608Z,161.83
2019-02-16T22:00:50.621Z,150.93
2019-02-16T22:03:26.245Z,148.27
2019-02-16T22:06:25.327Z,151.57
2019-02-16T22:09:21.475Z,197.30
2019-02-16T22:12:17.094Z,183.87
2019-02-16T22:14:44.662Z,161.70
2019-02-16T22:17:12.214Z,182.07
2019-02-16T22:19:39.841Z,163.50
2019-02-16T22:22:07.476Z,168.70
2019-02-16T22:24:35.077Z,166.13
2019-02-16T22:27:02.771Z,165.33
2019-02-16T22:29:30.613Z,170.47
2019-02-16T22:31:58.169Z,176.83
2019-02-16T22:34:25.803Z,164.27
2019-02-16T22:36:53.572Z,163.70
2019-02-16T22:39:21.235Z,182.87
2019-02-16T22:41:49.057Z,164.17
2019-02-16T22:44:16.763Z,158.97
2019-02-16T22:46:44.359Z,152.40
2019-02-16T22:49:13.637Z,161.63
2019-02-16T22:51:41.265Z,160.73
2019-02-16T22:54:09.369Z,173.83
2019-02-16T22:56:36.955Z,160.93
2019-02-16T22:59:05.029Z,163.63
2019-02-16T23:01:33.017Z,153.60
2019-02-16T23:04:00.543Z,176.30
2019-02-16T23:06:28.260Z,159.43
2019-02-16T23:08:55.803Z,178.00
2019-02-16T23:11:23.398Z,267.83
2019-02-16T23:13:51.401Z,295.23
2019-02-16T23:16:18.967Z,264.77
2019-02-16T23:18:46.581Z,286.97
2019-02-16T23:21:14.366Z,280.50
2019-02-16T23:23:41.942Z,266.53
2019-02-16T23:26:09.528Z,265.87
2019-02-16T23:28:39.250Z,267.90
2019-02-16T23:31:06.578Z,214.13
2019-02-16T23:33:34.169Z,241.73
2019-02-16T23:36:01.746Z,278.53
2019-02-16T23:38:29.742Z,267.07
2019-02-16T23:40:57.513Z,307.60
2019-02-16T23:43:25.102Z,254.03
2019-02-16T23:45:52.791Z,245.57
2019-02-16T23:48:20.343Z,248.70
2019-02-16T23:50:47.902Z,251.50
2019-02-16T23:53:15.749Z,240.80
2019-02-16T23:55:43.354Z,239.20
2019-02-16T23:58:10.894Z,232.37
